createdAt,value
2022-10-28T00:00:22.074Z,0.00
2022-10-28T00:01:22.101Z,0.00
2022-10-28T00:02:22.058Z,0.00
2022-10-28T00:03:22.010Z,0.00
2022-10-28T00:04:22.028Z,0.00
2022-10-28T00:05:21.986Z,0.00
2022-10-28T00:06:21.958Z,0.00
2022-10-28T00:07:21.953Z,0.00
2022-10-28T00:08:21.937Z,0.00
2022-10-28T00:09:21.941Z,0.00
2022-10-28T00:10:21.915Z,0.00
2022-10-28T00:11:21.917Z,0.00
2022-10-28T00:12:21.896Z,0.00
2022-10-28T00:13:21.892Z,0.00
2022-10-28T00:14:21.854Z,0.00
2022-10-28T00:15:21.867Z,0.00
2022-10-28T00:16:21.832Z,0.00
2022-10-28T00:17:21.837Z,0.00
2022-10-28T00:18:21.808Z,0.00
2022-10-28T00:19:21.807Z,0.00
2022-10-28T00:20:21.791Z,0.00
2022-10-28T00:21:21.804Z,0.00
2022-10-28T00:22:21.756Z,0.00
2022-10-28T00:23:21.750Z,0.00
2022-10-28T00:24:21.728Z,0.00
2022-10-28T00:25:21.724Z,0.00
2022-10-28T00:26:21.708Z,0.00
2022-10-28T00:27:21.698Z,0.00
2022-10-28T00:28:21.680Z,0.00
2022-10-28T00:29:21.668Z,0.00
2022-10-28T00:30:21.737Z,0.00
2022-10-28T00:31:21.660Z,0.00
2022-10-28T00:32:21.618Z,0.00
2022-10-28T00:33:21.708Z,0.00
2022-10-28T00:34:21.598Z,0.00
2022-10-28T00:35:21.620Z,0.00
2022-10-28T00:36:21.572Z,0.00
2022-10-28T00:37:21.562Z,0.00
2022-10-28T00:38:21.549Z,0.00
2022-10-28T00:39:21.555Z,0.00
2022-10-28T00:40:21.530Z,0.00
2022-10-28T00:41:21.515Z,0.00
2022-10-28T00:42:21.489Z,0.00
2022-10-28T00:43:21.506Z,0.00
2022-10-28T00:44:21.460Z,0.00
2022-10-28T00:45:21.467Z,0.00
2022-10-28T00:46:21.445Z,0.00
2022-10-28T00:47:21.429Z,0.00
2022-10-28T00:48:21.418Z,0.00
2022-10-28T00:49:21.405Z,0.00
2022-10-28T00:50:21.418Z,0.00
2022-10-28T00:51:21.388Z,0.00
2022-10-28T00:52:21.362Z,0.00
2022-10-28T00:53:21.350Z,0.00
2022-10-28T00:54:21.331Z,0.00
2022-10-28T00:55:21.330Z,0.00
2022-10-28T00:56:21.361Z,0.00
2022-10-28T00:57:21.299Z,0.00
2022-10-28T00:58:21.274Z,0.00
2022-10-28T00:59:21.268Z,0.00
2022-10-28T01:00:21.259Z,0.00
2022-10-28T01:01:21.355Z,0.00
2022-10-28T01:02:21.363Z,0.00
2022-10-28T01:03:21.228Z,0.00
2022-10-28T01:04:21.221Z,0.00
2022-10-28T01:05:21.195Z,0.00
2022-10-28T01:06:21.171Z,0.00
2022-10-28T01:07:21.158Z,0.00
2022-10-28T01:08:21.140Z,0.00
2022-10-28T01:09:21.191Z,0.00
2022-10-28T01:10:21.136Z,0.00
2022-10-28T01:11:21.112Z,0.00
2022-10-28T01:12:21.196Z,0.00
2022-10-28T01:13:21.107Z,0.00
2022-10-28T01:14:21.072Z,0.00
2022-10-28T01:15:21.077Z,0.00
2022-10-28T01:16:21.053Z,0.00
2022-10-28T01:17:21.042Z,0.00
2022-10-28T01:18:21.028Z,0.00
2022-10-28T01:19:21.004Z,0.00
2022-10-28T01:20:21.671Z,0.00
2022-10-28T01:21:20.980Z,0.00
2022-10-28T01:22:21.053Z,0.00
2022-10-28T01:23:20.963Z,0.00
2022-10-28T01:24:20.933Z,0.00
2022-10-28T01:25:20.941Z,0.00
2022-10-28T01:26:20.911Z,0.00
2022-10-28T01:27:20.898Z,0.00
2022-10-28T01:28:20.887Z,0.00
2022-10-28T01:29:20.899Z,0.00
2022-10-28T01:30:20.858Z,0.00
2022-10-28T01:31:20.883Z,0.00
2022-10-28T01:32:20.827Z,0.00
2022-10-28T01:33:20.819Z,0.00
2022-10-28T01:34:20.804Z,0.00
2022-10-28T01:35:20.847Z,0.00
2022-10-28T01:36:20.790Z,0.00
2022-10-28T01:37:20.766Z,0.00
2022-10-28T01:38:20.746Z,0.00
2022-10-28T01:39:20.743Z,0.00
2022-10-28T01:40:20.731Z,0.00
2022-10-28T01:41:20.743Z,0.00
2022-10-28T01:42:20.722Z,0.00
2022-10-28T01:43:20.702Z,0.00
2022-10-28T01:44:20.685Z,0.00
2022-10-28T01:45:20.679Z,0.00
2022-10-28T01:46:20.657Z,0.00
2022-10-28T01:47:20.639Z,0.00
2022-10-28T01:48:20.624Z,0.00
2022-10-28T01:49:20.615Z,0.00
2022-10-28T01:50:20.626Z,0.00
2022-10-28T01:51:20.590Z,0.00
2022-10-28T01:52:20.571Z,0.00
2022-10-28T01:53:20.564Z,0.00
2022-10-28T01:54:20.544Z,0.00
2022-10-28T01:55:20.539Z,0.00
2022-10-28T01:56:20.538Z,0.00
2022-10-28T01:57:20.504Z,0.00
2022-10-28T01:58:20.492Z,0.00
2022-10-28T01:59:20.482Z,0.00
2022-10-28T02:00:20.482Z,0.00
2022-10-28T02:01:20.557Z,0.00
2022-10-28T02:02:20.447Z,0.00
2022-10-28T02:03:20.424Z,0.00
2022-10-28T02:04:20.446Z,0.00
2022-10-28T02:05:20.436Z,0.00
2022-10-28T02:06:20.392Z,0.00
2022-10-28T02:07:20.368Z,0.00
2022-10-28T02:08:20.358Z,0.00
2022-10-28T02:09:20.342Z,0.00
2022-10-28T02:10:20.342Z,0.00
2022-10-28T02:11:20.331Z,0.00
2022-10-28T02:12:20.369Z,0.00
2022-10-28T02:13:20.291Z,0.00
2022-10-28T02:14:20.287Z,0.00
2022-10-28T02:15:20.350Z,0.00
2022-10-28T02:16:20.257Z,0.00
2022-10-28T02:17:20.237Z,0.00
2022-10-28T02:18:20.216Z,0.00
2022-10-28T02:19:20.214Z,0.00
2022-10-28T02:20:20.334Z,0.00
2022-10-28T02:21:20.206Z,0.00
2022-10-28T02:22:20.171Z,0.00
2022-10-28T02:23:20.162Z,0.00
2022-10-28T02:24:20.158Z,0.00
2022-10-28T02:25:20.212Z,0.00
2022-10-28T02:26:20.156Z,0.00
2022-10-28T02:27:20.104Z,0.00
2022-10-28T02:28:20.082Z,0.00
2022-10-28T02:29:20.210Z,0.00
2022-10-28T02:30:20.066Z,0.00
2022-10-28T02:31:20.063Z,0.00
2022-10-28T02:32:20.031Z,0.00
2022-10-28T02:33:20.024Z,0.00
2022-10-28T02:34:20.025Z,0.00
2022-10-28T02:35:20.097Z,0.00
2022-10-28T02:36:19.989Z,0.00
2022-10-28T02:37:19.985Z,0.00
2022-10-28T02:38:19.967Z,0.00
2022-10-28T02:39:19.958Z,0.00
2022-10-28T02:40:19.937Z,0.00
2022-10-28T02:41:20.054Z,0.00
2022-10-28T02:42:19.907Z,0.00
2022-10-28T02:43:19.907Z,0.00
2022-10-28T02:44:19.879Z,0.00
2022-10-28T02:45:19.905Z,0.00
2022-10-28T02:46:19.918Z,0.00
2022-10-28T02:47:19.847Z,0.00
2022-10-28T02:48:19.824Z,0.00
2022-10-28T02:49:19.820Z,0.00
2022-10-28T02:50:19.857Z,0.00
2022-10-28T02:51:19.791Z,0.00
2022-10-28T02:52:19.766Z,0.00
2022-10-28T02:53:19.796Z,0.00
2022-10-28T02:54:19.748Z,0.00
2022-10-28T02:55:19.827Z,0.00
2022-10-28T02:56:19.724Z,0.00
2022-10-28T02:57:19.715Z,0.00
2022-10-28T02:58:19.697Z,0.00
2022-10-28T02:59:19.678Z,0.00
2022-10-28T03:00:19.686Z,0.00
2022-10-28T03:01:19.967Z,0.00
2022-10-28T03:02:19.690Z,0.00
2022-10-28T03:03:19.636Z,0.00
2022-10-28T03:04:19.617Z,0.00
2022-10-28T03:05:19.597Z,0.00
2022-10-28T03:06:19.810Z,0.00
2022-10-28T03:07:19.573Z,0.00
2022-10-28T03:08:19.561Z,0.00
2022-10-28T03:09:19.558Z,0.00
2022-10-28T03:10:19.556Z,0.00
2022-10-28T03:11:19.532Z,0.00
2022-10-28T03:12:19.503Z,0.00
2022-10-28T03:13:19.503Z,0.00
2022-10-28T03:14:19.479Z,0.00
2022-10-28T03:15:19.565Z,0.00
2022-10-28T03:16:19.469Z,0.00
2022-10-28T03:17:19.437Z,0.00
2022-10-28T03:18:19.425Z,0.00
2022-10-28T03:19:19.427Z,0.00
2022-10-28T03:20:19.402Z,0.00
2022-10-28T03:21:19.494Z,0.00
2022-10-28T03:22:19.383Z,0.00
2022-10-28T03:23:19.365Z,0.00
2022-10-28T03:24:19.359Z,0.00
2022-10-28T03:25:19.336Z,0.00
2022-10-28T03:26:19.332Z,0.00
2022-10-28T03:27:19.427Z,0.00
2022-10-28T03:28:19.293Z,0.00
2022-10-28T03:29:19.287Z,0.00
2022-10-28T03:30:19.268Z,0.00
2022-10-28T03:31:19.287Z,0.00
2022-10-28T03:32:19.343Z,0.00
2022-10-28T03:33:19.246Z,0.00
2022-10-28T03:34:19.396Z,0.00
2022-10-28T03:35:19.202Z,0.00
2022-10-28T03:36:19.196Z,0.00
2022-10-28T03:37:19.176Z,0.00
2022-10-28T03:38:19.160Z,0.00
2022-10-28T03:39:19.274Z,0.00
2022-10-28T03:40:19.152Z,0.00
2022-10-28T03:41:19.139Z,0.00
2022-10-28T03:42:19.110Z,0.00
2022-10-28T03:43:19.108Z,0.00
2022-10-28T03:44:19.085Z,0.00
2022-10-28T03:45:19.205Z,0.00
2022-10-28T03:46:19.061Z,0.00
2022-10-28T03:47:19.051Z,0.00
2022-10-28T03:48:19.033Z,0.00
2022-10-28T03:49:19.049Z,0.00
2022-10-28T03:50:18.996Z,0.00
2022-10-28T03:51:18.987Z,0.00
2022-10-28T03:52:19.139Z,0.00
2022-10-28T03:53:18.975Z,0.00
2022-10-28T03:54:18.949Z,0.00
2022-10-28T03:55:18.939Z,0.00
2022-10-28T03:56:18.919Z,0.00
2022-10-28T03:57:18.918Z,0.00
2022-10-28T03:58:18.914Z,0.00
2022-10-28T03:59:20.308Z,0.00
2022-10-28T04:00:18.908Z,0.00
2022-10-28T04:01:18.932Z,0.00
2022-10-28T04:02:19.043Z,0.00
2022-10-28T04:03:18.840Z,0.00
2022-10-28T04:04:18.834Z,0.00
2022-10-28T04:05:18.808Z,0.00
2022-10-28T04:06:18.827Z,0.00
2022-10-28T04:07:18.798Z,0.00
2022-10-28T04:08:18.781Z,0.00
2022-10-28T04:09:18.758Z,0.00
2022-10-28T04:10:18.750Z,0.00
2022-10-28T04:11:18.736Z,0.00
2022-10-28T04:12:18.731Z,0.00
2022-10-28T04:13:18.699Z,0.00
2022-10-28T04:14:18.700Z,0.00
2022-10-28T04:15:18.675Z,0.00
2022-10-28T04:16:18.657Z,0.00
2022-10-28T04:17:18.692Z,0.00
2022-10-28T04:18:18.629Z,0.00
2022-10-28T04:19:18.619Z,0.00
2022-10-28T04:20:18.646Z,0.00
2022-10-28T04:21:18.593Z,0.00
2022-10-28T04:22:18.658Z,0.00
2022-10-28T04:23:18.569Z,0.00
2022-10-28T04:24:18.556Z,0.00
2022-10-28T04:25:18.548Z,0.00
2022-10-28T04:26:18.541Z,0.00
2022-10-28T04:27:18.784Z,0.00
2022-10-28T04:28:18.498Z,0.00
2022-10-28T04:29:18.489Z,0.00
2022-10-28T04:30:18.480Z,0.00
2022-10-28T04:31:18.466Z,0.00
2022-10-28T04:32:18.476Z,0.00
2022-10-28T04:33:18.448Z,0.00
2022-10-28T04:34:18.428Z,0.00
2022-10-28T04:35:18.425Z,0.00
2022-10-28T04:36:18.401Z,0.00
2022-10-28T04:37:20.288Z,0.00
2022-10-28T04:38:18.415Z,0.00
2022-10-28T04:39:18.355Z,0.00
2022-10-28T04:40:18.342Z,0.00
2022-10-28T04:41:18.331Z,0.00
2022-10-28T04:42:18.340Z,0.00
2022-10-28T04:43:18.296Z,0.00
2022-10-28T04:44:18.287Z,0.00
2022-10-28T04:45:18.282Z,0.00
2022-10-28T04:46:18.301Z,0.00
2022-10-28T04:47:18.274Z,0.00
2022-10-28T04:48:18.248Z,0.00
2022-10-28T04:49:18.226Z,0.00
2022-10-28T04:50:18.212Z,0.00
2022-10-28T04:51:18.196Z,0.00
2022-10-28T04:52:18.200Z,0.00
2022-10-28T04:53:18.169Z,0.00
2022-10-28T04:54:18.157Z,0.00
2022-10-28T04:55:18.145Z,0.00
2022-10-28T04:56:18.129Z,0.00
2022-10-28T04:57:18.133Z,0.00
2022-10-28T04:58:18.112Z,0.00
2022-10-28T04:59:18.122Z,0.00
2022-10-28T05:00:18.079Z,0.00
2022-10-28T05:01:18.193Z,0.00
2022-10-28T05:02:18.241Z,0.00
2022-10-28T05:03:18.037Z,0.00
2022-10-28T05:04:18.028Z,0.00
2022-10-28T05:05:18.014Z,0.00
2022-10-28T05:06:18.022Z,0.00
2022-10-28T05:07:21.201Z,0.00
2022-10-28T05:08:18.991Z,0.00
2022-10-28T05:09:17.955Z,0.00
2022-10-28T05:10:17.959Z,0.00
2022-10-28T05:11:17.944Z,0.00
2022-10-28T05:12:17.963Z,0.00
2022-10-28T05:13:17.897Z,0.00
2022-10-28T05:14:17.898Z,0.00
2022-10-28T05:15:17.875Z,0.00
2022-10-28T05:16:17.871Z,0.00
2022-10-28T05:17:18.531Z,0.00
2022-10-28T05:18:17.844Z,0.00
2022-10-28T05:19:17.824Z,0.00
2022-10-28T05:20:17.836Z,0.00
2022-10-28T05:21:17.801Z,0.00
2022-10-28T05:22:17.825Z,0.00
2022-10-28T05:23:17.771Z,0.00
2022-10-28T05:24:17.757Z,0.00
2022-10-28T05:25:17.761Z,0.00
2022-10-28T05:26:17.729Z,0.00
2022-10-28T05:27:17.728Z,0.00
2022-10-28T05:28:17.707Z,0.00
2022-10-28T05:29:17.698Z,0.00
2022-10-28T05:30:17.712Z,0.00
2022-10-28T05:31:17.670Z,0.00
2022-10-28T05:32:17.671Z,0.00
2022-10-28T05:33:17.641Z,0.00
2022-10-28T05:34:17.633Z,0.00
2022-10-28T05:35:17.605Z,0.00
2022-10-28T05:36:17.594Z,0.00
2022-10-28T05:37:17.605Z,0.00
2022-10-28T05:38:17.583Z,0.00
2022-10-28T05:39:17.557Z,0.00
2022-10-28T05:40:17.544Z,0.00
2022-10-28T05:41:17.535Z,0.00
2022-10-28T05:42:17.535Z,0.00
2022-10-28T05:43:17.507Z,0.00
2022-10-28T05:44:17.495Z,0.00
2022-10-28T05:45:17.644Z,0.00
2022-10-28T05:46:17.469Z,0.00
2022-10-28T05:47:17.471Z,0.00
2022-10-28T05:48:17.431Z,0.00
2022-10-28T05:49:17.416Z,0.00
2022-10-28T05:50:17.414Z,0.00
2022-10-28T05:51:17.404Z,0.00
2022-10-28T05:52:17.421Z,0.00
2022-10-28T05:53:17.376Z,0.00
2022-10-28T05:54:17.356Z,0.00
2022-10-28T05:55:17.335Z,0.00
2022-10-28T05:56:17.344Z,0.00
2022-10-28T05:57:17.355Z,0.00
2022-10-28T05:58:17.324Z,0.00
2022-10-28T05:59:17.287Z,0.00
2022-10-28T06:00:17.295Z,0.00
2022-10-28T06:01:17.429Z,0.00
2022-10-28T06:02:17.268Z,0.00
2022-10-28T06:03:17.285Z,0.00
2022-10-28T06:04:17.322Z,0.00
2022-10-28T06:05:17.224Z,0.00
2022-10-28T06:06:17.194Z,0.00
2022-10-28T06:07:17.196Z,0.00
2022-10-28T06:08:17.189Z,0.00
2022-10-28T06:09:17.164Z,5.62
2022-10-28T06:10:17.146Z,5.62
2022-10-28T06:11:15.586Z,5.62
2022-10-28T06:12:15.596Z,5.62
2022-10-28T06:13:15.588Z,5.62
2022-10-28T06:14:15.574Z,5.62
2022-10-28T06:15:15.543Z,5.62
2022-10-28T06:16:15.537Z,11.25
2022-10-28T06:17:15.567Z,11.25
2022-10-28T06:18:18.174Z,11.25
2022-10-28T06:19:15.495Z,11.25
2022-10-28T06:20:15.496Z,11.25
2022-10-28T06:21:15.478Z,16.88
2022-10-28T06:22:15.466Z,16.88
2022-10-28T06:23:15.454Z,16.88
2022-10-28T06:24:15.451Z,16.88
2022-10-28T06:25:15.415Z,16.88
2022-10-28T06:26:15.428Z,22.50
2022-10-28T06:27:15.400Z,22.50
2022-10-28T06:28:15.384Z,22.50
2022-10-28T06:29:15.363Z,22.50
2022-10-28T06:30:15.401Z,22.50
2022-10-28T06:31:15.362Z,22.50
2022-10-28T06:32:15.363Z,28.12
2022-10-28T06:33:15.360Z,28.12
2022-10-28T06:34:15.308Z,28.12
2022-10-28T06:35:15.296Z,28.12
2022-10-28T06:36:15.285Z,28.12
2022-10-28T06:37:15.279Z,33.75
2022-10-28T06:38:15.263Z,33.75
2022-10-28T06:39:15.285Z,33.75
2022-10-28T06:40:15.273Z,33.75
2022-10-28T06:41:15.225Z,33.75
2022-10-28T06:42:15.237Z,39.38
2022-10-28T06:43:15.238Z,39.38
2022-10-28T06:44:15.205Z,39.38
2022-10-28T06:45:15.194Z,39.38
2022-10-28T06:46:15.238Z,39.38
2022-10-28T06:47:16.665Z,45.00
2022-10-28T06:48:16.670Z,45.00
2022-10-28T06:49:16.659Z,45.00
2022-10-28T06:50:16.646Z,45.00
2022-10-28T06:51:16.703Z,45.00
2022-10-28T06:52:16.621Z,50.62
2022-10-28T06:53:16.597Z,50.62
2022-10-28T06:54:16.677Z,50.62
2022-10-28T06:55:16.576Z,50.62
2022-10-28T06:56:16.594Z,50.62
2022-10-28T06:57:16.554Z,56.25
2022-10-28T06:58:16.582Z,56.25
2022-10-28T06:59:16.512Z,56.25
2022-10-28T07:00:16.584Z,56.25
2022-10-28T07:01:16.714Z,56.25
2022-10-28T07:02:16.635Z,61.88
2022-10-28T07:03:16.478Z,61.88
2022-10-28T07:04:16.463Z,61.88
2022-10-28T07:05:16.432Z,61.88
2022-10-28T07:06:16.490Z,61.88
2022-10-28T07:07:16.411Z,61.88
2022-10-28T07:08:16.407Z,67.50
2022-10-28T07:09:16.390Z,67.50
2022-10-28T07:10:16.389Z,67.50
2022-10-28T07:11:16.478Z,67.50
2022-10-28T07:13:16.399Z,73.12
2022-10-28T07:14:16.339Z,73.12
2022-10-28T07:15:16.333Z,73.12
2022-10-28T07:16:16.305Z,78.75
2022-10-28T07:17:16.289Z,78.75
2022-10-28T07:18:16.328Z,78.75
2022-10-28T07:19:20.326Z,78.75
2022-10-28T07:20:17.289Z,84.38
2022-10-28T07:21:16.234Z,84.38
2022-10-28T07:22:16.243Z,84.38
2022-10-28T07:23:16.228Z,90.00
2022-10-28T07:24:16.352Z,90.00
2022-10-28T07:25:16.196Z,90.00
2022-10-28T07:26:16.206Z,90.00
2022-10-28T07:27:16.186Z,90.00
2022-10-28T07:28:16.170Z,90.00
2022-10-28T07:29:16.273Z,90.00
2022-10-28T07:30:16.144Z,90.00
2022-10-28T07:31:16.116Z,90.00
2022-10-28T07:32:16.116Z,90.00
2022-10-28T07:33:16.104Z,90.00
2022-10-28T07:34:16.225Z,95.62
2022-10-28T07:35:16.074Z,95.62
2022-10-28T07:36:16.073Z,95.62
2022-10-28T07:37:16.050Z,95.62
2022-10-28T07:38:16.136Z,95.62
2022-10-28T07:39:16.005Z,95.62
2022-10-28T07:40:16.007Z,95.62
2022-10-28T07:41:16.021Z,101.25
2022-10-28T07:42:15.975Z,101.25
2022-10-28T07:43:15.994Z,101.25
2022-10-28T07:44:15.943Z,101.25
2022-10-28T07:45:15.945Z,101.25
2022-10-28T07:46:15.956Z,101.25
2022-10-28T07:47:16.004Z,101.25
2022-10-28T07:48:15.918Z,106.88
2022-10-28T07:49:15.871Z,106.88
2022-10-28T07:50:15.874Z,106.88
2022-10-28T07:51:15.907Z,106.88
2022-10-28T07:52:15.838Z,106.88
2022-10-28T07:54:15.814Z,112.50
2022-10-28T07:55:15.801Z,112.50
2022-10-28T07:56:15.919Z,112.50
2022-10-28T07:57:15.794Z,112.50
2022-10-28T07:58:15.820Z,118.12
2022-10-28T07:59:15.738Z,118.12
2022-10-28T08:00:15.761Z,118.12
2022-10-28T08:01:15.871Z,118.12
2022-10-28T08:02:15.776Z,123.75
2022-10-28T08:03:15.782Z,123.75
2022-10-28T08:04:15.673Z,123.75
2022-10-28T08:05:15.660Z,123.75
2022-10-28T08:06:15.664Z,123.75
2022-10-28T08:07:15.617Z,129.38
2022-10-28T08:08:15.683Z,129.38
2022-10-28T08:09:15.590Z,129.38
2022-10-28T08:10:15.574Z,129.38
2022-10-28T08:11:15.647Z,129.38
2022-10-28T08:12:15.566Z,135.00
2022-10-28T08:13:15.604Z,135.00
2022-10-28T08:14:15.521Z,135.00
2022-10-28T08:15:15.499Z,135.00
2022-10-28T08:16:15.490Z,135.00
2022-10-28T08:17:15.500Z,135.00
2022-10-28T08:18:15.564Z,135.00
2022-10-28T08:19:15.463Z,140.62
2022-10-28T08:20:15.426Z,140.62
2022-10-28T08:21:15.412Z,140.62
2022-10-28T08:22:15.450Z,140.62
2022-10-28T08:23:15.433Z,140.62
2022-10-28T08:24:15.387Z,140.62
2022-10-28T08:25:15.365Z,140.62
2022-10-28T08:26:15.361Z,140.62
2022-10-28T08:27:15.480Z,140.62
2022-10-28T08:28:15.348Z,140.62
2022-10-28T08:29:15.314Z,140.62
2022-10-28T08:30:15.302Z,140.62
2022-10-28T08:31:15.303Z,140.62
2022-10-28T08:32:15.332Z,140.62
2022-10-28T08:33:15.298Z,146.25
2022-10-28T08:34:15.305Z,146.25
2022-10-28T08:35:15.239Z,146.25
2022-10-28T08:36:15.225Z,146.25
2022-10-28T08:37:15.316Z,151.88
2022-10-28T08:38:15.200Z,151.88
2022-10-28T08:39:15.185Z,157.50
2022-10-28T08:40:15.175Z,157.50
2022-10-28T08:41:15.231Z,157.50
2022-10-28T08:42:15.143Z,157.50
2022-10-28T08:43:15.141Z,157.50
2022-10-28T08:44:15.107Z,157.50
2022-10-28T08:45:15.999Z,157.50
2022-10-28T08:46:15.072Z,157.50
2022-10-28T08:47:15.066Z,163.12
2022-10-28T08:48:15.085Z,163.12
2022-10-28T08:49:15.098Z,163.12
2022-10-28T08:50:15.027Z,168.75
2022-10-28T08:51:15.016Z,163.12
2022-10-28T08:52:14.998Z,168.75
2022-10-28T08:53:15.026Z,168.75
2022-10-28T08:54:15.006Z,174.38
2022-10-28T08:55:14.961Z,174.38
2022-10-28T08:56:15.009Z,174.38
2022-10-28T08:57:17.968Z,180.00
2022-10-28T08:58:14.929Z,180.00
2022-10-28T08:59:14.929Z,180.00
2022-10-28T09:00:14.897Z,180.00
2022-10-28T09:01:15.132Z,180.00
2022-10-28T09:02:14.883Z,185.62
2022-10-28T09:03:14.924Z,185.62
2022-10-28T09:04:14.880Z,185.62
2022-10-28T09:05:14.822Z,185.62
2022-10-28T09:06:14.818Z,185.62
2022-10-28T09:07:14.808Z,185.62
2022-10-28T09:08:14.831Z,185.62
2022-10-28T09:09:14.791Z,191.25
2022-10-28T09:10:14.760Z,191.25
2022-10-28T09:11:14.759Z,196.88
2022-10-28T09:12:14.800Z,202.50
2022-10-28T09:13:14.748Z,202.50
2022-10-28T09:14:14.710Z,202.50
2022-10-28T09:15:14.703Z,202.50
2022-10-28T09:16:16.160Z,208.12
2022-10-28T09:17:14.686Z,213.75
2022-10-28T09:18:14.666Z,219.38
2022-10-28T09:19:14.664Z,213.75
2022-10-28T09:20:14.633Z,219.38
2022-10-28T09:21:14.735Z,225.00
2022-10-28T09:22:18.445Z,230.62
2022-10-28T09:23:15.628Z,236.25
2022-10-28T09:24:14.604Z,241.88
2022-10-28T09:25:14.638Z,247.50
2022-10-28T09:26:14.547Z,253.12
2022-10-28T09:27:14.539Z,258.75
2022-10-28T09:28:14.728Z,264.38
2022-10-28T09:29:14.651Z,275.62
2022-10-28T09:30:14.501Z,292.50
2022-10-28T09:31:14.485Z,331.88
2022-10-28T09:32:14.481Z,551.25
2022-10-28T09:33:14.511Z,956.25
2022-10-28T09:34:14.443Z,990.00
2022-10-28T09:35:14.534Z,995.62
2022-10-28T09:36:14.514Z,1136.25
2022-10-28T09:37:14.411Z,1203.75
2022-10-28T09:38:14.411Z,1192.50
2022-10-28T09:39:14.458Z,1153.12
2022-10-28T09:40:14.364Z,1175.62
2022-10-28T09:41:14.365Z,1057.50
2022-10-28T09:42:14.330Z,613.12
2022-10-28T09:43:14.351Z,360.00
2022-10-28T09:44:14.491Z,320.62
2022-10-28T09:45:14.356Z,303.75
2022-10-28T09:46:14.315Z,292.50
2022-10-28T09:47:14.275Z,286.88
2022-10-28T09:48:14.313Z,275.62
2022-10-28T09:49:14.251Z,275.62
2022-10-28T09:50:14.260Z,270.00
2022-10-28T09:51:14.219Z,270.00
2022-10-28T09:52:16.020Z,270.00
2022-10-28T09:53:14.230Z,264.38
2022-10-28T09:54:14.182Z,264.38
2022-10-28T09:55:14.189Z,264.38
2022-10-28T09:56:14.162Z,264.38
2022-10-28T09:57:16.514Z,264.38
2022-10-28T09:58:14.206Z,264.38
2022-10-28T09:59:14.131Z,264.38
2022-10-28T10:00:14.106Z,275.62
2022-10-28T10:01:14.150Z,275.62
2022-10-28T10:02:14.101Z,275.62
2022-10-28T10:03:14.091Z,275.62
2022-10-28T10:04:14.044Z,275.62
2022-10-28T10:05:16.892Z,270.00
2022-10-28T10:06:14.018Z,270.00
2022-10-28T10:07:14.185Z,281.25
2022-10-28T10:08:13.999Z,281.25
2022-10-28T10:09:13.975Z,275.62
2022-10-28T10:10:13.964Z,275.62
2022-10-28T10:11:13.977Z,275.62
2022-10-28T10:12:13.939Z,281.25
2022-10-28T10:13:14.061Z,275.62
2022-10-28T10:14:13.911Z,275.62
2022-10-28T10:15:14.032Z,270.00
2022-10-28T10:16:13.891Z,270.00
2022-10-28T10:17:13.876Z,275.62
2022-10-28T10:18:13.865Z,281.25
2022-10-28T10:19:13.854Z,281.25
2022-10-28T10:20:13.958Z,286.88
2022-10-28T10:21:13.830Z,298.12
2022-10-28T10:22:13.806Z,303.75
2022-10-28T10:23:13.807Z,309.38
2022-10-28T10:24:13.797Z,309.38
2022-10-28T10:25:13.832Z,309.38
2022-10-28T10:26:13.750Z,303.75
2022-10-28T10:27:13.765Z,315.00
2022-10-28T10:28:13.791Z,326.25
2022-10-28T10:29:13.714Z,337.50
2022-10-28T10:30:13.704Z,343.12
2022-10-28T10:31:13.690Z,348.75
2022-10-28T10:32:13.774Z,360.00
2022-10-28T10:33:13.698Z,365.62
2022-10-28T10:34:13.642Z,365.62
2022-10-28T10:35:13.639Z,365.62
2022-10-28T10:36:13.617Z,365.62
2022-10-28T10:37:13.699Z,365.62
2022-10-28T10:38:13.602Z,360.00
2022-10-28T10:39:13.582Z,382.50
2022-10-28T10:40:13.569Z,393.75
2022-10-28T10:41:13.571Z,444.38
2022-10-28T10:42:13.638Z,798.75
2022-10-28T10:43:14.117Z,1198.12
2022-10-28T10:44:13.515Z,1310.62
2022-10-28T10:45:13.507Z,1288.12
2022-10-28T10:46:13.595Z,1215.00
2022-10-28T10:47:13.494Z,1113.75
2022-10-28T10:48:13.465Z,810.00
2022-10-28T10:49:13.448Z,579.38
2022-10-28T10:50:13.484Z,540.00
2022-10-28T10:51:13.425Z,511.88
2022-10-28T10:52:13.426Z,483.75
2022-10-28T10:53:13.472Z,478.12
2022-10-28T10:54:13.377Z,483.75
2022-10-28T10:55:13.376Z,472.50
2022-10-28T10:56:13.362Z,455.62
2022-10-28T10:57:13.353Z,455.62
2022-10-28T10:58:13.425Z,461.25
2022-10-28T10:59:13.329Z,461.25
2022-10-28T11:00:13.307Z,450.00
2022-10-28T11:01:13.429Z,438.75
2022-10-28T11:02:13.374Z,421.88
2022-10-28T11:03:13.359Z,416.25
2022-10-28T11:04:13.256Z,421.88
2022-10-28T11:05:13.263Z,421.88
2022-10-28T11:06:28.471Z,421.88
2022-10-28T11:07:14.229Z,427.50
2022-10-28T11:08:13.272Z,421.88
2022-10-28T11:10:13.217Z,376.88
2022-10-28T11:11:13.184Z,410.62
2022-10-28T11:12:13.155Z,416.25
2022-10-28T11:13:13.146Z,421.88
2022-10-28T11:14:13.151Z,427.50
2022-10-28T11:15:13.170Z,444.38
2022-10-28T11:16:13.091Z,444.38
2022-10-28T11:17:13.141Z,444.38
2022-10-28T11:18:13.075Z,450.00
2022-10-28T11:19:13.055Z,433.12
2022-10-28T11:20:13.135Z,450.00
2022-10-28T11:21:13.103Z,461.25
2022-10-28T11:22:13.039Z,461.25
2022-10-28T11:23:13.027Z,444.38
2022-10-28T11:24:12.993Z,410.62
2022-10-28T11:25:13.097Z,416.25
2022-10-28T11:26:12.971Z,433.12
2022-10-28T11:27:12.974Z,433.12
2022-10-28T11:28:12.946Z,433.12
2022-10-28T11:29:13.016Z,427.50
2022-10-28T11:30:12.913Z,416.25
2022-10-28T11:31:12.901Z,433.12
2022-10-28T11:32:12.886Z,438.75
2022-10-28T11:33:29.305Z,444.38
2022-10-28T11:34:13.861Z,466.88
2022-10-28T11:35:12.913Z,500.62
2022-10-28T11:36:12.834Z,528.75
2022-10-28T11:37:12.830Z,568.12
2022-10-28T11:38:12.814Z,585.00
2022-10-28T11:39:12.813Z,517.50
2022-10-28T11:40:12.792Z,534.38
2022-10-28T11:41:12.782Z,556.88
2022-10-28T11:42:12.756Z,585.00
2022-10-28T11:43:12.754Z,641.25
2022-10-28T11:44:12.733Z,680.62
2022-10-28T11:45:12.724Z,675.00
2022-10-28T11:46:12.704Z,691.88
2022-10-28T11:47:12.687Z,720.00
2022-10-28T11:48:12.668Z,675.00
2022-10-28T11:49:12.688Z,652.50
2022-10-28T11:50:12.709Z,675.00
2022-10-28T11:51:12.645Z,652.50
2022-10-28T11:52:12.618Z,663.75
2022-10-28T11:53:12.616Z,691.88
2022-10-28T11:54:12.644Z,618.75
2022-10-28T11:55:12.597Z,545.62
2022-10-28T11:56:12.561Z,528.75
2022-10-28T11:57:12.551Z,720.00
2022-10-28T11:59:12.547Z,973.12
2022-10-28T12:00:12.597Z,995.62
2022-10-28T12:01:12.551Z,866.25
2022-10-28T12:02:12.622Z,742.50
2022-10-28T12:03:12.615Z,585.00
2022-10-28T12:04:12.473Z,562.50
2022-10-28T12:05:12.461Z,607.50
2022-10-28T12:06:12.426Z,680.62
2022-10-28T12:07:12.415Z,832.50
2022-10-28T12:08:12.415Z,928.12
2022-10-28T12:09:12.411Z,990.00
2022-10-28T12:10:12.443Z,1102.50
2022-10-28T12:11:12.362Z,1186.88
2022-10-28T12:12:12.351Z,1203.75
2022-10-28T12:13:12.379Z,1175.62
2022-10-28T12:14:12.350Z,1125.00
2022-10-28T12:15:12.314Z,1040.62
2022-10-28T12:16:12.305Z,1192.50
2022-10-28T12:17:12.296Z,1063.12
2022-10-28T12:18:12.274Z,1046.25
2022-10-28T12:19:12.273Z,770.62
2022-10-28T12:20:12.362Z,613.12
2022-10-28T12:21:12.286Z,601.88
2022-10-28T12:22:12.231Z,601.88
2022-10-28T12:23:12.204Z,511.88
2022-10-28T12:24:12.208Z,382.50
2022-10-28T12:25:12.251Z,354.38
2022-10-28T12:26:12.169Z,427.50
2022-10-28T12:27:15.365Z,517.50
2022-10-28T12:28:13.228Z,478.12
2022-10-28T12:29:12.158Z,444.38
2022-10-28T12:30:12.169Z,405.00
2022-10-28T12:31:12.110Z,495.00
2022-10-28T12:32:12.115Z,556.88
2022-10-28T12:33:12.133Z,523.12
2022-10-28T12:34:12.069Z,511.88
2022-10-28T12:35:12.075Z,551.25
2022-10-28T12:36:12.037Z,556.88
2022-10-28T12:37:12.031Z,528.75
2022-10-28T12:38:12.006Z,489.38
2022-10-28T12:39:12.002Z,433.12
2022-10-28T12:40:12.027Z,410.62
2022-10-28T12:41:11.972Z,455.62
2022-10-28T12:42:11.960Z,478.12
2022-10-28T12:43:11.959Z,500.62
2022-10-28T12:44:11.937Z,534.38
2022-10-28T12:45:11.919Z,624.38
2022-10-28T12:46:11.937Z,455.62
2022-10-28T12:47:11.897Z,455.62
2022-10-28T12:48:11.887Z,545.62
2022-10-28T12:49:11.868Z,708.75
2022-10-28T12:50:11.853Z,883.12
2022-10-28T12:51:11.838Z,860.62
2022-10-28T12:52:11.828Z,866.25
2022-10-28T12:53:11.830Z,838.12
2022-10-28T12:54:11.809Z,894.38
2022-10-28T12:55:11.814Z,894.38
2022-10-28T12:56:11.927Z,984.38
2022-10-28T12:57:11.751Z,1147.50